Myra Eckstein — WDF9473 — position and weather

sailwx.info

Track history (hours):
 
Tides and Currents Weather Stations Pressure Air Temp Water Temp Dewpoint Dewpoint Depression Visibility Wind Speed Wind Dir Waves Ship Positions

Myra Eckstein

Owner: Marquette Transportation Co. LLC, Paducah, KY. More information available from US FCC via Universal Licensing System and Coast Guard Vessel Documentation Center.

Last reported at 2015-May-03 01:21 UTC. Time now 2015-May-04 21:08 UTC.
Position N 30°07' W 091°02'.

Length 47 m; draft 3.5 m.

Type: Towing. MMSI: 367505510.

Date/timePositionNaut miles runAvg speedWind from/ knotsBaromVisibWave heightAir tempDewpointWater temp
2015-May-03 01:21N 30°07' W 091°02'9 3.0
2015-May-02 22:32N 30°15' W 091°07'5 3.4
2015-May-02 21:10N 30°19' W 091°09'5 7.7
2015-May-02 20:29N 30°21' W 091°14'3 2.8
2015-May-02 19:27N 30°24' W 091°13'0 0.0
2015-May-02 18:33N 30°24' W 091°13'0 0.0
2015-May-02 17:32N 30°24' W 091°13'3 3.1
2015-May-02 16:34N 30°27' W 091°12'5 4.8
2015-May-02 15:34N 30°30' W 091°16'4 4.2
2015-May-02 14:33N 30°34' W 091°17'8 8.1
2015-May-02 13:33N 30°42' W 091°21'9 8.8
2015-May-02 12:33N 30°44' W 091°31'  
2015-Apr-23 20:18N 30°42' W 091°21'4 5.0
2015-Apr-23 19:33N 30°39' W 091°19'4 3.6
2015-Apr-23 18:34N 30°36' W 091°17'4 4.1
2015-Apr-23 17:33N 30°32' W 091°15'2 1.8
2015-Apr-23 16:34N 30°30' W 091°16'3 3.0
2015-Apr-23 15:33N 30°31' W 091°12'3 3.4
2015-Apr-23 14:33N 30°28' W 091°12'3 3.0
2015-Apr-23 13:33N 30°25' W 091°12'4 4.3
2015-Apr-23 12:33N 30°20' W 091°14'4 4.4
2015-Apr-23 11:33N 30°20' W 091°09'4 4.3
2015-Apr-23 10:33N 30°18' W 091°13'4 3.5
2015-Apr-23 09:33N 30°17' W 091°10'6 2.1
2015-Apr-23 06:33N 30°13' W 091°04'  
Track history (hours):
 
Tides and Currents Weather Stations Pressure Air Temp Water Temp Dewpoint Dewpoint Depression Visibility Wind Speed Wind Dir Waves Ship Positions

Myra Eckstein

Owner: Marquette Transportation Co. LLC, Paducah, KY. More information available from US FCC via Universal Licensing System and Coast Guard Vessel Documentation Center.

Last reported at 2015-May-03 01:21 UTC. Time now 2015-May-04 21:08 UTC.
Position N 30°07' W 091°02'.

Length 47 m; draft 3.5 m.

Type: Towing. MMSI: 367505510.

Date/timePositionNaut miles runAvg speedWind from/ knotsBaromVisibWave heightAir tempDewpointWater temp
2015-May-03 01:21N 30°07' W 091°02'9 3.0
2015-May-02 22:32N 30°15' W 091°07'5 3.4
2015-May-02 21:10N 30°19' W 091°09'5 7.7
2015-May-02 20:29N 30°21' W 091°14'3 2.8
2015-May-02 19:27N 30°24' W 091°13'0 0.0
2015-May-02 18:33N 30°24' W 091°13'0 0.0
2015-May-02 17:32N 30°24' W 091°13'3 3.1
2015-May-02 16:34N 30°27' W 091°12'5 4.8
2015-May-02 15:34N 30°30' W 091°16'4 4.2
2015-May-02 14:33N 30°34' W 091°17'8 8.1
2015-May-02 13:33N 30°42' W 091°21'9 8.8
2015-May-02 12:33N 30°44' W 091°31'  
2015-Apr-23 20:18N 30°42' W 091°21'4 5.0
2015-Apr-23 19:33N 30°39' W 091°19'4 3.6
2015-Apr-23 18:34N 30°36' W 091°17'4 4.1
2015-Apr-23 17:33N 30°32' W 091°15'2 1.8
2015-Apr-23 16:34N 30°30' W 091°16'3 3.0
2015-Apr-23 15:33N 30°31' W 091°12'3 3.4
2015-Apr-23 14:33N 30°28' W 091°12'3 3.0
2015-Apr-23 13:33N 30°25' W 091°12'4 4.3
2015-Apr-23 12:33N 30°20' W 091°14'4 4.4
2015-Apr-23 11:33N 30°20' W 091°09'4 4.3
2015-Apr-23 10:33N 30°18' W 091°13'4 3.5
2015-Apr-23 09:33N 30°17' W 091°10'6 2.1
2015-Apr-23 06:33N 30°13' W 091°04'  

Dump ship's entire track history